createdAt,value
2023-04-06T00:00:44.366Z,101921.66
2023-04-06T00:03:14.548Z,101934.84
2023-04-06T00:05:43.326Z,101920.28
2023-04-06T00:08:12.178Z,101801.38
2023-04-06T00:10:40.697Z,101911.50
2023-04-06T00:13:10.229Z,101909.91
2023-04-06T00:15:39.128Z,101840.41
2023-04-06T00:18:07.829Z,101904.00
2023-04-06T00:20:40.053Z,101854.69
2023-04-06T00:23:08.636Z,101858.13
2023-04-06T00:25:37.396Z,101857.69
2023-04-06T00:28:06.162Z,101891.06
2023-04-06T00:30:34.973Z,101868.41
2023-04-06T00:33:03.484Z,101891.09
2023-04-06T00:35:32.277Z,101880.91
2023-04-06T00:38:02.412Z,101841.19
2023-04-06T00:40:32.045Z,101885.66
2023-04-06T00:43:00.778Z,101884.22
2023-04-06T00:45:29.476Z,101877.53
2023-04-06T00:47:59.125Z,101854.00
2023-04-06T00:50:28.105Z,101861.66
2023-04-06T00:52:57.306Z,101821.09
2023-04-06T00:55:30.776Z,101882.44
2023-04-06T00:58:02.222Z,101870.63
2023-04-06T01:00:35.537Z,101874.88
2023-04-06T01:03:06.972Z,101861.84
2023-04-06T01:05:43.632Z,101867.22
2023-04-06T01:08:21.056Z,101806.38
2023-04-06T01:10:52.549Z,101863.44
2023-04-06T01:13:27.029Z,101769.38
2023-04-06T01:15:58.695Z,101826.72
2023-04-06T01:18:37.297Z,101824.09
2023-04-06T01:21:18.879Z,101793.53
2023-04-06T01:24:09.508Z,101751.84
2023-04-06T01:27:01.695Z,101814.34
2023-04-06T01:29:38.031Z,101839.06
2023-04-06T01:32:09.052Z,101804.53
2023-04-06T01:34:45.824Z,101742.09
2023-04-06T01:37:14.456Z,101748.78
2023-04-06T01:39:45.011Z,101737.00
2023-04-06T01:42:19.184Z,101777.84
2023-04-06T01:44:49.828Z,101823.03
2023-04-06T01:47:18.949Z,101792.31
2023-04-06T01:49:47.948Z,101779.94
2023-04-06T01:52:16.890Z,101779.84
2023-04-06T01:54:54.386Z,101795.56
2023-04-06T01:57:36.942Z,101758.97
2023-04-06T02:00:18.279Z,101805.22
2023-04-06T02:02:53.280Z,101751.75
2023-04-06T02:05:27.716Z,101794.16
2023-04-06T02:07:57.558Z,101741.19
2023-04-06T02:10:36.077Z,101606.31
2023-04-06T02:13:13.089Z,101792.66
2023-04-06T02:15:46.363Z,101786.53
2023-04-06T02:18:14.841Z,101782.75
2023-04-06T02:20:43.488Z,101740.91
2023-04-06T02:23:12.188Z,101751.97
2023-04-06T02:25:42.297Z,101774.88
2023-04-06T02:28:11.378Z,101710.91
2023-04-06T02:30:40.198Z,101758.34
2023-04-06T02:33:09.060Z,101716.31
2023-04-06T02:35:47.669Z,101738.44
2023-04-06T02:38:16.152Z,101722.31
2023-04-06T02:40:46.102Z,101699.47
2023-04-06T02:43:22.113Z,101721.38
2023-04-06T02:45:54.522Z,101698.91
2023-04-06T02:48:24.984Z,101759.34
2023-04-06T02:50:55.071Z,101754.34
2023-04-06T02:53:23.482Z,101752.88
2023-04-06T02:55:53.617Z,101757.03
2023-04-06T02:58:22.069Z,101756.72
2023-04-06T03:00:55.057Z,101753.78
2023-04-06T03:03:23.732Z,101637.13
2023-04-06T03:05:53.060Z,101747.16
2023-04-06T03:08:27.966Z,101680.06
2023-04-06T03:10:58.136Z,101688.75
2023-04-06T03:13:36.368Z,101746.94
2023-04-06T03:16:05.641Z,101738.50
2023-04-06T03:18:34.717Z,101564.47
2023-04-06T03:21:03.237Z,101743.09
2023-04-06T03:23:52.115Z,101702.75
2023-04-06T03:26:23.288Z,101731.47
2023-04-06T03:28:53.634Z,101730.69
2023-04-06T03:31:26.388Z,101563.69
2023-04-06T03:34:07.381Z,101729.25
2023-04-06T03:36:38.227Z,101699.47
2023-04-06T03:39:07.369Z,101698.41
2023-04-06T03:41:41.232Z,101721.72
2023-04-06T03:44:41.887Z,101722.75
2023-04-06T03:47:10.668Z,101642.25
2023-04-06T03:49:40.610Z,101711.53
2023-04-06T03:52:12.594Z,101592.69
2023-04-06T03:54:41.384Z,101585.59
2023-04-06T03:57:14.443Z,101709.34
2023-04-06T03:59:43.050Z,101712.63
2023-04-06T04:02:11.702Z,101720.34
2023-04-06T04:04:40.781Z,101673.72
2023-04-06T04:07:09.294Z,101716.22
2023-04-06T04:09:39.000Z,101619.72
2023-04-06T04:12:08.316Z,101712.19
2023-04-06T04:14:38.543Z,101712.19
2023-04-06T04:17:07.146Z,101705.31
2023-04-06T04:19:35.669Z,101707.88
2023-04-06T04:22:05.546Z,101687.94
2023-04-06T04:24:36.922Z,101710.69
2023-04-06T04:27:05.890Z,101536.47
2023-04-06T04:29:37.144Z,101703.31
2023-04-06T04:32:09.909Z,101700.34
2023-04-06T04:34:41.197Z,101587.56
2023-04-06T04:37:12.483Z,101680.00
2023-04-06T04:39:52.317Z,101664.16
2023-04-06T04:42:20.959Z,101699.94
2023-04-06T04:45:02.086Z,101706.81
2023-04-06T04:47:36.466Z,101714.13
2023-04-06T04:50:07.394Z,101709.19
2023-04-06T04:52:39.650Z,101664.06
2023-04-06T04:55:16.754Z,101702.84
2023-04-06T04:57:48.554Z,101696.81
2023-04-06T05:00:21.868Z,101598.84
2023-04-06T05:02:51.461Z,101708.88
2023-04-06T05:05:23.829Z,101698.63
2023-04-06T05:07:53.106Z,101669.72
2023-04-06T05:10:41.927Z,101674.38
2023-04-06T05:13:10.883Z,101672.78
2023-04-06T05:15:41.413Z,101654.25
2023-04-06T05:18:22.649Z,101701.56
2023-04-06T05:20:52.808Z,101695.53
2023-04-06T05:23:26.338Z,101639.13
2023-04-06T05:25:55.785Z,101704.84
2023-04-06T05:28:25.320Z,101617.16
2023-04-06T05:30:55.865Z,101677.56
2023-04-06T05:33:24.656Z,101701.13
2023-04-06T05:36:15.381Z,101700.78
2023-04-06T05:38:46.933Z,101666.38
2023-04-06T05:41:41.572Z,101683.66
2023-04-06T05:44:12.176Z,101709.44
2023-04-06T05:46:45.588Z,101700.28
2023-04-06T05:49:17.555Z,101617.88
2023-04-06T05:51:46.110Z,101615.53
2023-04-06T05:54:15.000Z,101695.78
2023-04-06T05:56:44.439Z,101698.31
2023-04-06T05:59:15.012Z,101687.97
2023-04-06T06:01:46.151Z,101558.03
2023-04-06T06:04:15.512Z,101690.94
2023-04-06T06:06:44.531Z,101695.06
2023-04-06T06:09:17.374Z,101637.19
2023-04-06T06:12:02.253Z,101600.03
2023-04-06T06:14:31.870Z,101646.44
2023-04-06T06:17:02.156Z,101631.69
2023-04-06T06:19:31.621Z,101683.72
2023-04-06T06:22:04.177Z,101589.88
2023-04-06T06:24:35.246Z,101647.41
2023-04-06T06:27:04.561Z,101634.56
2023-04-06T06:29:35.575Z,101460.34
2023-04-06T06:32:06.113Z,101691.69
2023-04-06T06:34:34.952Z,101690.69
2023-04-06T06:37:08.501Z,101629.06
2023-04-06T06:39:39.611Z,101678.50
2023-04-06T06:42:08.632Z,101579.94
2023-04-06T06:45:03.550Z,101664.13
2023-04-06T06:47:33.699Z,101698.09
2023-04-06T06:50:03.896Z,101684.09
2023-04-06T06:52:32.628Z,101628.16
2023-04-06T06:55:02.298Z,101675.25
2023-04-06T06:57:30.855Z,101687.91
2023-04-06T07:00:00.889Z,101667.13
2023-04-06T07:02:32.109Z,101682.25
2023-04-06T07:05:00.665Z,101673.34
2023-04-06T07:07:31.579Z,101637.94
2023-04-06T07:10:01.366Z,101678.28
2023-04-06T07:12:29.924Z,101675.84
2023-04-06T07:14:58.452Z,101684.09
2023-04-06T07:17:27.110Z,101654.50
2023-04-06T07:19:57.324Z,101658.94
2023-04-06T07:22:26.022Z,101565.00
2023-04-06T07:24:55.161Z,101646.78
2023-04-06T07:27:23.704Z,101672.16
2023-04-06T07:29:52.465Z,101677.28
2023-04-06T07:32:21.068Z,101682.81
2023-04-06T07:34:49.827Z,101675.72
2023-04-06T07:37:20.089Z,101636.44
2023-04-06T07:39:51.420Z,101613.38
2023-04-06T07:42:20.492Z,101634.59
2023-04-06T07:44:51.071Z,101669.03
2023-04-06T07:47:19.707Z,101644.91
2023-04-06T07:49:48.761Z,101678.59
2023-04-06T07:52:23.601Z,101679.38
2023-04-06T07:54:52.353Z,101661.00
2023-04-06T07:57:21.046Z,101621.91
2023-04-06T07:59:49.605Z,101632.31
2023-04-06T08:02:18.292Z,101525.19
2023-04-06T08:04:47.676Z,101653.88
2023-04-06T08:07:16.414Z,101640.59
2023-04-06T08:09:46.579Z,101681.38
2023-04-06T08:12:15.051Z,101658.09
2023-04-06T08:14:43.563Z,101684.75
2023-04-06T08:17:12.189Z,101677.00
2023-04-06T08:19:40.719Z,101679.34
2023-04-06T08:22:09.504Z,101662.06
2023-04-06T08:24:37.990Z,101601.00
2023-04-06T08:27:08.729Z,101657.16
2023-04-06T08:29:37.319Z,101680.06
2023-04-06T08:32:07.491Z,101587.34
2023-04-06T08:34:36.418Z,101688.50
2023-04-06T08:37:05.693Z,101642.28
2023-04-06T08:39:34.946Z,101608.44
2023-04-06T08:42:04.843Z,101613.50
2023-04-06T08:44:38.904Z,101645.94
2023-04-06T08:47:07.827Z,101687.78
2023-04-06T08:49:39.425Z,101645.22
2023-04-06T08:52:09.614Z,101641.97
2023-04-06T08:54:38.569Z,101681.69
2023-04-06T08:57:08.663Z,101614.00
2023-04-06T08:59:39.664Z,101676.34
2023-04-06T09:02:15.719Z,101681.66
2023-04-06T09:04:44.639Z,101678.09
2023-04-06T09:07:13.780Z,101676.78
2023-04-06T09:09:48.609Z,101614.50
2023-04-06T09:12:27.524Z,101532.63
2023-04-06T09:14:59.479Z,101623.28
2023-04-06T09:17:29.682Z,101606.16
2023-04-06T09:19:59.118Z,101665.44
2023-04-06T09:22:29.380Z,101672.03
2023-04-06T09:24:58.089Z,101662.66
2023-04-06T09:27:33.896Z,101666.28
2023-04-06T09:30:15.119Z,101659.69
2023-04-06T09:32:49.087Z,101658.97
2023-04-06T09:35:18.277Z,101658.25
2023-04-06T09:37:47.087Z,101643.09
2023-04-06T09:40:18.444Z,101639.41
2023-04-06T09:42:49.461Z,101651.00
2023-04-06T09:45:19.632Z,101596.63
2023-04-06T09:47:48.815Z,101675.91
2023-04-06T09:50:18.416Z,101608.81
2023-04-06T09:52:51.602Z,101659.84
2023-04-06T09:55:28.543Z,101666.03
2023-04-06T09:58:08.348Z,101665.13
2023-04-06T10:00:51.662Z,101668.16
2023-04-06T10:03:42.420Z,101653.88
2023-04-06T10:06:16.125Z,101647.44
2023-04-06T10:08:48.109Z,101657.59
2023-04-06T10:11:17.165Z,101637.16
2023-04-06T10:13:48.149Z,101630.47
2023-04-06T10:16:18.945Z,101660.06
2023-04-06T10:18:54.297Z,101659.56
2023-04-06T10:21:28.169Z,101627.00
2023-04-06T10:24:01.947Z,101637.72
2023-04-06T10:26:30.642Z,101658.19
2023-04-06T10:29:05.925Z,101609.03
2023-04-06T10:31:41.816Z,101660.44
2023-04-06T10:34:10.685Z,101625.63
2023-04-06T10:36:40.182Z,101654.78
2023-04-06T10:39:09.140Z,101654.59
2023-04-06T10:41:42.856Z,101623.91
2023-04-06T10:44:22.537Z,101649.22
2023-04-06T10:47:02.958Z,101610.78
2023-04-06T10:49:31.508Z,101643.28
2023-04-06T10:52:00.263Z,101603.13
2023-04-06T10:54:30.135Z,101615.97
2023-04-06T10:56:58.745Z,101564.50
2023-04-06T10:59:27.820Z,101629.00
2023-04-06T11:01:57.995Z,101544.88
2023-04-06T11:04:27.756Z,101616.28
2023-04-06T11:06:56.646Z,101611.78
2023-04-06T11:09:29.192Z,101613.50
2023-04-06T11:11:58.304Z,101591.72
2023-04-06T11:14:27.601Z,101560.41
2023-04-06T11:16:56.509Z,101614.91
2023-04-06T11:19:27.163Z,101602.81
2023-04-06T11:21:56.876Z,101570.50
2023-04-06T11:24:27.204Z,101517.94
2023-04-06T11:26:58.589Z,101573.69
2023-04-06T11:29:29.882Z,101541.16
2023-04-06T11:32:02.774Z,101568.34
2023-04-06T11:34:37.945Z,101574.16
2023-04-06T11:37:11.103Z,101558.56
2023-04-06T11:39:42.485Z,101570.56
2023-04-06T11:42:11.505Z,101568.19
2023-04-06T11:44:43.641Z,101592.69
2023-04-06T11:47:14.041Z,101521.41
2023-04-06T11:49:46.932Z,101535.91
2023-04-06T11:52:20.062Z,101437.50
2023-04-06T11:54:50.048Z,101519.56
2023-04-06T11:57:20.423Z,101535.03
2023-04-06T11:59:49.474Z,101545.78
2023-04-06T12:02:18.713Z,101539.03
2023-04-06T12:04:48.943Z,101584.66
2023-04-06T12:07:18.173Z,101574.47
2023-04-06T12:09:46.652Z,101579.22
2023-04-06T12:12:15.248Z,101577.25
2023-04-06T12:14:43.774Z,101577.69
2023-04-06T12:17:12.234Z,101545.13
2023-04-06T12:19:41.674Z,101572.81
2023-04-06T12:22:11.831Z,101537.84
2023-04-06T12:24:40.498Z,101550.75
2023-04-06T12:27:11.987Z,101567.84
2023-04-06T12:29:40.621Z,101559.13
2023-04-06T12:32:09.516Z,101515.03
2023-04-06T12:34:37.999Z,101555.66
2023-04-06T12:37:06.568Z,101559.19
2023-04-06T12:39:36.552Z,101544.84
2023-04-06T12:42:06.031Z,101560.19
2023-04-06T12:44:34.385Z,101551.63
2023-04-06T12:47:03.473Z,101549.53
2023-04-06T12:49:32.685Z,101546.56
2023-04-06T12:52:01.201Z,101548.81
2023-04-06T12:54:30.332Z,101503.03
2023-04-06T12:57:00.162Z,101523.50
2023-04-06T12:59:29.252Z,101545.25
2023-04-06T13:01:57.659Z,101539.00
2023-04-06T13:04:27.350Z,101531.38
2023-04-06T13:06:55.875Z,101537.97
2023-04-06T13:09:24.311Z,101529.00
2023-04-06T13:11:53.126Z,101516.44
2023-04-06T13:14:22.993Z,101480.22
2023-04-06T13:16:52.215Z,101524.94
2023-04-06T13:19:20.906Z,101529.72
2023-04-06T13:21:49.553Z,101478.59
2023-04-06T13:24:18.113Z,101529.28
2023-04-06T13:26:46.599Z,101478.06
2023-04-06T13:29:15.067Z,101509.19
2023-04-06T13:31:45.080Z,101492.84
2023-04-06T13:34:13.584Z,101505.94
2023-04-06T13:36:42.880Z,101473.88
2023-04-06T13:39:11.397Z,101464.81
2023-04-06T13:41:41.108Z,101503.25
2023-04-06T13:44:09.562Z,101498.63
2023-04-06T13:46:38.221Z,101497.66
2023-04-06T13:49:09.293Z,101499.50
2023-04-06T13:51:37.762Z,101475.22
2023-04-06T13:54:06.809Z,101475.47
2023-04-06T13:56:35.297Z,101479.56
2023-04-06T13:59:05.191Z,101494.63
2023-04-06T14:01:33.763Z,101481.34
2023-04-06T14:04:02.434Z,101478.78
2023-04-06T14:06:32.394Z,101487.91
2023-04-06T14:09:01.104Z,101487.72
2023-04-06T14:11:29.907Z,101488.34
2023-04-06T14:13:58.813Z,101441.59
2023-04-06T14:16:30.340Z,101482.88
2023-04-06T14:19:00.040Z,101482.50
2023-04-06T14:21:28.569Z,101452.56
2023-04-06T14:23:59.790Z,101462.41
2023-04-06T14:26:28.764Z,101433.28
2023-04-06T14:28:57.267Z,101480.91
2023-04-06T14:31:25.795Z,101444.84
2023-04-06T14:33:54.399Z,101441.34
2023-04-06T14:36:22.763Z,101455.94
2023-04-06T14:38:51.222Z,101470.50
2023-04-06T14:41:24.348Z,101420.53
2023-04-06T14:43:53.659Z,101468.19
2023-04-06T14:46:22.601Z,101472.09
2023-04-06T14:48:51.823Z,101409.78
2023-04-06T14:51:20.216Z,101463.69
2023-04-06T14:53:48.784Z,101458.91
2023-04-06T14:56:23.417Z,101462.41
2023-04-06T14:58:52.363Z,101382.72
2023-04-06T15:01:21.798Z,101453.72
2023-04-06T15:03:50.612Z,101402.78
2023-04-06T15:06:21.764Z,101432.09
2023-04-06T15:08:51.172Z,101451.63
2023-04-06T15:11:19.593Z,101445.84
2023-04-06T15:13:51.810Z,101450.19
2023-04-06T15:16:20.528Z,101449.31
2023-04-06T15:18:48.989Z,101420.88
2023-04-06T15:21:18.295Z,101444.72
2023-04-06T15:23:47.045Z,101448.91
2023-04-06T15:26:15.508Z,101443.44
2023-04-06T15:28:44.875Z,101432.78
2023-04-06T15:33:50.574Z,101445.66
2023-04-06T15:36:27.384Z,101409.28
2023-04-06T15:38:55.780Z,101444.53
2023-04-06T15:41:24.337Z,101437.56
2023-04-06T15:43:52.693Z,101408.97
2023-04-06T15:46:23.557Z,101432.81
2023-04-06T15:48:51.875Z,101430.97
2023-04-06T15:51:20.743Z,101421.88
2023-04-06T15:53:49.202Z,101437.59
2023-04-06T15:56:17.674Z,101408.69
2023-04-06T15:58:48.050Z,101415.44
2023-04-06T16:01:18.757Z,101429.31
2023-04-06T16:03:49.122Z,101424.28
2023-04-06T16:06:17.472Z,101375.88
2023-04-06T16:08:45.971Z,101429.03
2023-04-06T16:11:14.621Z,101396.63
2023-04-06T16:13:45.031Z,101428.22
2023-04-06T16:16:15.815Z,101427.75
2023-04-06T16:18:44.311Z,101389.63
2023-04-06T16:21:18.253Z,101428.63
2023-04-06T16:23:48.946Z,101400.28
2023-04-06T16:26:18.983Z,101428.91
2023-04-06T16:28:47.551Z,101419.66
2023-04-06T16:31:22.043Z,101419.06
2023-04-06T16:33:51.022Z,101419.91
2023-04-06T16:36:25.281Z,101383.31
2023-04-06T16:38:53.739Z,101419.66
2023-04-06T16:41:22.576Z,101404.06
2023-04-06T16:43:51.427Z,101359.06
2023-04-06T16:46:19.766Z,101411.38
2023-04-06T16:48:48.592Z,101378.81
2023-04-06T16:51:18.725Z,101330.03
2023-04-06T16:53:48.875Z,101411.22
2023-04-06T16:56:17.639Z,101417.56
2023-04-06T16:58:46.460Z,101410.94
2023-04-06T17:01:22.280Z,101403.63
2023-04-06T17:03:51.388Z,101415.56
2023-04-06T17:06:20.995Z,101410.53
2023-04-06T17:08:51.305Z,101403.56
2023-04-06T17:11:23.660Z,101399.88
2023-04-06T17:13:56.558Z,101412.63
2023-04-06T17:16:27.049Z,101386.44
2023-04-06T17:18:58.385Z,101366.63
2023-04-06T17:21:26.810Z,101370.38
2023-04-06T17:23:56.589Z,101409.13
2023-04-06T17:26:25.045Z,101410.53
2023-04-06T17:28:53.467Z,101413.50
2023-04-06T17:31:22.577Z,101416.44
2023-04-06T17:33:51.097Z,101373.06
2023-04-06T17:36:20.608Z,101389.47
2023-04-06T17:38:49.803Z,101409.00
2023-04-06T17:41:19.555Z,101415.03
2023-04-06T17:43:48.202Z,101418.69
2023-04-06T17:46:17.002Z,101418.28
2023-04-06T17:48:47.075Z,101411.25
2023-04-06T17:51:18.963Z,101424.69
2023-04-06T17:53:47.584Z,101422.47
2023-04-06T17:56:16.086Z,101395.97
2023-04-06T17:58:45.905Z,101425.69
2023-04-06T18:01:14.760Z,101428.22
2023-04-06T18:03:43.233Z,101348.84
2023-04-06T18:06:16.404Z,101425.56
2023-04-06T18:08:44.961Z,101417.97
2023-04-06T18:11:18.364Z,101410.28
2023-04-06T18:13:48.932Z,101369.69
2023-04-06T18:16:17.860Z,101362.00
2023-04-06T18:18:46.321Z,101433.53
2023-04-06T18:21:14.782Z,101432.56
2023-04-06T18:23:43.104Z,101421.66
2023-04-06T18:26:18.193Z,101433.53
2023-04-06T18:28:48.644Z,101443.09
2023-04-06T18:31:17.141Z,101440.25
2023-04-06T18:33:46.854Z,101363.41
2023-04-06T18:36:15.662Z,101447.69
2023-04-06T18:38:47.826Z,101418.09
2023-04-06T18:41:16.517Z,101426.09
2023-04-06T18:43:45.011Z,101461.44
2023-04-06T18:46:15.990Z,101457.53
2023-04-06T18:48:44.926Z,101409.38
2023-04-06T18:51:13.527Z,101463.34
2023-04-06T18:53:42.031Z,101468.59
2023-04-06T18:56:18.504Z,101457.53
2023-04-06T18:58:48.495Z,101432.72
2023-04-06T19:01:26.638Z,101470.16
2023-04-06T19:03:56.647Z,101442.09
2023-04-06T19:06:27.266Z,101430.06
2023-04-06T19:08:56.048Z,101479.44
2023-04-06T19:11:25.362Z,101463.84
2023-04-06T19:13:55.336Z,101472.16
2023-04-06T19:16:26.405Z,101484.47
2023-04-06T19:18:54.812Z,101421.19
2023-04-06T19:21:25.097Z,101482.38
2023-04-06T19:23:55.909Z,101492.06
2023-04-06T19:26:27.943Z,101495.94
2023-04-06T19:28:56.441Z,101458.41
2023-04-06T19:31:27.828Z,101478.88
2023-04-06T19:33:56.476Z,101510.00
2023-04-06T19:36:24.968Z,101505.53
2023-04-06T19:38:53.434Z,101510.56
2023-04-06T19:41:22.443Z,101518.31
2023-04-06T19:43:51.326Z,101488.97
2023-04-06T19:46:19.896Z,101514.94
2023-04-06T19:48:49.766Z,101510.56
2023-04-06T19:51:18.230Z,101500.63
2023-04-06T19:53:46.758Z,101520.97
2023-04-06T19:56:16.177Z,101509.16
2023-04-06T19:58:44.710Z,101520.53
2023-04-06T20:01:13.224Z,101527.44
2023-04-06T20:03:41.987Z,101524.19
2023-04-06T20:06:12.429Z,101531.19
2023-04-06T20:08:41.351Z,101529.16
2023-04-06T20:11:10.133Z,101530.56
2023-04-06T20:13:39.356Z,101492.22
2023-04-06T20:16:08.225Z,101532.66
2023-04-06T20:18:37.157Z,101535.75
2023-04-06T20:21:06.026Z,101470.19
2023-04-06T20:23:37.597Z,101532.34
2023-04-06T20:26:09.031Z,101524.88
2023-04-06T20:28:39.582Z,101527.69
2023-04-06T20:31:09.680Z,101482.91
2023-04-06T20:33:38.480Z,101532.19
2023-04-06T20:36:07.145Z,101543.56
2023-04-06T20:38:37.088Z,101551.69
2023-04-06T20:41:06.439Z,101483.72
2023-04-06T20:43:35.628Z,101369.34
2023-04-06T20:46:05.524Z,101514.31
2023-04-06T20:48:36.281Z,101528.53
2023-04-06T20:51:05.672Z,101529.19
2023-04-06T20:53:34.103Z,101551.81
2023-04-06T20:56:04.389Z,101529.88
2023-04-06T20:58:32.777Z,101492.66
2023-04-06T21:01:01.187Z,101556.09
2023-04-06T21:03:29.747Z,101526.78
2023-04-06T21:05:59.961Z,101526.88
2023-04-06T21:08:28.380Z,101551.22
2023-04-06T21:10:56.947Z,101556.09
2023-04-06T21:13:26.628Z,101495.25
2023-04-06T21:15:56.235Z,101563.53
2023-04-06T21:18:25.092Z,101516.19
2023-04-06T21:20:53.620Z,101533.72
2023-04-06T21:23:23.099Z,101565.72
2023-04-06T21:25:52.005Z,101564.47
2023-04-06T21:28:20.535Z,101526.38
2023-04-06T21:30:50.346Z,101508.66
2023-04-06T21:33:18.744Z,101508.47
2023-04-06T21:35:47.123Z,101563.72
2023-04-06T21:38:15.566Z,101547.53
2023-04-06T21:40:43.919Z,101566.59
2023-04-06T21:43:12.519Z,101503.47
2023-04-06T21:45:40.865Z,101570.28
2023-04-06T21:48:10.607Z,101546.69
2023-04-06T21:50:41.184Z,101511.06
2023-04-06T21:53:09.964Z,101543.81
2023-04-06T21:55:44.873Z,101544.78
2023-04-06T21:58:14.011Z,101539.25
2023-04-06T22:00:43.003Z,101573.94
2023-04-06T22:03:12.894Z,101571.41
2023-04-06T22:05:41.622Z,101584.94
2023-04-06T22:08:15.155Z,101554.16
2023-04-06T22:10:46.584Z,101582.91
2023-04-06T22:13:15.450Z,101571.91
2023-04-06T22:15:43.770Z,101580.03
2023-04-06T22:18:13.509Z,101564.88
2023-04-06T22:20:41.848Z,101538.81
2023-04-06T22:23:10.984Z,101584.00
2023-04-06T22:25:39.849Z,101590.75
2023-04-06T22:28:08.181Z,101593.78
2023-04-06T22:30:36.523Z,101544.66
2023-04-06T22:33:05.022Z,101600.66
2023-04-06T22:35:34.800Z,101597.56
2023-04-06T22:38:03.103Z,101597.50
2023-04-06T22:40:31.496Z,101599.84
2023-04-06T22:42:59.934Z,101569.00
2023-04-06T22:45:28.358Z,101587.44
2023-04-06T22:47:56.902Z,101595.28
2023-04-06T22:50:25.952Z,101563.41
2023-04-06T22:52:56.369Z,101577.50
2023-04-06T22:55:25.011Z,101602.56
2023-04-06T22:57:53.444Z,101603.53
2023-04-06T23:00:21.969Z,101564.13
2023-04-06T23:02:50.624Z,101600.88
2023-04-06T23:05:19.120Z,101592.44
2023-04-06T23:07:47.597Z,101606.84
2023-04-06T23:10:17.501Z,101612.44
2023-04-06T23:12:46.074Z,101596.75
2023-04-06T23:15:14.608Z,101612.53
2023-04-06T23:17:42.951Z,101579.91
2023-04-06T23:20:11.491Z,101598.94
2023-04-06T23:22:39.839Z,101621.81
2023-04-06T23:25:10.109Z,101616.84
2023-04-06T23:27:39.764Z,101626.19
2023-04-06T23:30:09.792Z,101606.84
2023-04-06T23:32:38.199Z,101637.09
2023-04-06T23:35:07.923Z,101621.13
2023-04-06T23:37:36.334Z,101639.03
2023-04-06T23:40:05.109Z,101628.31
2023-04-06T23:42:33.409Z,101596.78
2023-04-06T23:45:04.775Z,101573.81
2023-04-06T23:47:33.175Z,101624.78
2023-04-06T23:50:01.711Z,101637.19
2023-04-06T23:52:30.703Z,101637.84
2023-04-06T23:54:59.051Z,101640.97
2023-04-06T23:57:27.627Z,101637.00
2023-04-06T23:59:57.247Z,101634.19
